Time;durP1;ratioP1;P1;durP2;ratioP2;P2;SDS_P1;SDS_P2;PMS_P1;PMS_P2;Temp;Humidity;BMP_temperature;BMP_pressure;BME280_temperature;BME280_humidity;BME280_pressure;Samples;Min_cycle;Max_cycle;Signal;HPM_P1;HPM_P2
2022/09/30 00:01:41;;;;;;;10.82;7.00;;;7.30;99.90;;;;;;6181674;23;20013;-86
2022/09/30 00:04:13;;;;;;;5.15;4.00;;;7.40;99.90;;;;;;6195368;23;20016;-86
2022/09/30 00:06:47;;;;;;;5.55;5.00;;;7.50;99.90;;;;;;6187809;23;20009;-86
2022/09/30 00:09:15;;;;;;;6.57;5.97;;;7.50;99.90;;;;;;6184770;23;20021;-86
2022/09/30 00:11:44;;;;;;;5.05;4.55;;;7.50;99.90;;;;;;6192447;23;20016;-86
2022/09/30 00:14:20;;;;;;;6.25;5.40;;;7.50;99.90;;;;;;6217952;23;20023;-86
2022/09/30 00:16:48;;;;;;;7.20;4.70;;;7.40;99.90;;;;;;6227193;22;20012;-85
2022/09/30 00:19:15;;;;;;;5.25;4.68;;;7.40;99.90;;;;;;6192943;23;20016;-86
2022/09/30 00:21:43;;;;;;;3.25;3.03;;;7.40;99.90;;;;;;6227288;22;20431;-87
2022/09/30 00:24:11;;;;;;;3.38;2.92;;;7.50;99.90;;;;;;6193452;23;20023;-86
2022/09/30 00:26:39;;;;;;;4.68;3.80;;;7.50;99.90;;;;;;6222683;23;20017;-86
2022/09/30 00:29:06;;;;;;;3.38;3.05;;;7.50;99.90;;;;;;6228798;23;20008;-87
2022/09/30 00:31:35;;;;;;;17.33;5.80;;;7.50;99.90;;;;;;6245965;22;20023;-86
2022/09/30 00:34:06;;;;;;;13.07;4.13;;;7.50;99.90;;;;;;6251482;23;20016;-86
2022/09/30 00:36:46;;;;;;;5.68;5.18;;;7.40;99.90;;;;;;6228217;23;20009;-86
2022/09/30 00:39:19;;;;;;;5.68;4.20;;;7.30;99.90;;;;;;6217924;23;20026;-86
2022/09/30 00:41:55;;;;;;;4.60;4.20;;;7.40;99.90;;;;;;6226399;23;20019;-86
2022/09/30 00:45:00;;;;;;;5.55;4.60;;;7.30;99.90;;;;;;6218239;23;20012;-86
2022/09/30 00:48:16;;;;;;;5.45;4.53;;;7.40;99.90;;;;;;6219783;23;20035;-86
2022/09/30 00:50:48;;;;;;;4.47;3.78;;;7.40;99.90;;;;;;6166997;23;20020;-89
2022/09/30 00:53:28;;;;;;;4.50;4.10;;;7.40;99.90;;;;;;6193666;23;20016;-89
2022/09/30 00:56:03;;;;;;;4.95;3.80;;;7.40;99.90;;;;;;6217288;23;20024;-84
2022/09/30 00:58:49;;;;;;;5.22;4.28;;;7.50;99.90;;;;;;6192599;23;20020;-84
2022/09/30 01:01:17;;;;;;;5.50;4.68;;;7.50;99.90;;;;;;6253306;23;20019;-84
2022/09/30 01:03:53;;;;;;;5.50;4.65;;;7.50;99.90;;;;;;6245296;22;20024;-84
2022/09/30 01:07:04;;;;;;;6.63;5.57;;;7.50;99.90;;;;;;6217225;23;20460;-83
2022/09/30 01:09:38;;;;;;;5.10;4.57;;;7.40;99.90;;;;;;6253171;22;20031;-84
2022/09/30 01:12:16;;;;;;;3.75;3.42;;;7.40;99.90;;;;;;6253370;23;20016;-84
2022/09/30 01:14:46;;;;;;;4.65;4.25;;;7.40;99.90;;;;;;6217234;23;20024;-84
2022/09/30 01:17:27;;;;;;;5.90;4.78;;;7.40;99.90;;;;;;6255294;23;20020;-83
2022/09/30 01:20:16;;;;;;;7.90;5.40;;;7.40;99.90;;;;;;6217362;22;20023;-85
2022/09/30 01:23:10;;;;;;;5.85;5.13;;;7.40;99.90;;;;;;6222365;23;20016;-85
2022/09/30 01:26:08;;;;;;;5.43;4.90;;;7.40;99.90;;;;;;6227823;22;20538;-85
2022/09/30 01:29:13;;;;;;;6.15;5.07;;;7.50;99.90;;;;;;6218064;23;20024;-85
2022/09/30 01:32:14;;;;;;;5.28;4.78;;;7.50;99.90;;;;;;6191722;23;20036;-85
2022/09/30 01:34:58;;;;;;;6.27;5.67;;;7.50;99.90;;;;;;6249558;22;20016;-85
2022/09/30 01:38:03;;;;;;;5.97;4.70;;;7.50;99.90;;;;;;6218384;23;20020;-85
2022/09/30 01:40:53;;;;;;;6.90;5.43;;;7.50;99.90;;;;;;6207124;23;20076;-85
2022/09/30 01:43:50;;;;;;;5.68;4.72;;;7.50;99.90;;;;;;6194970;23;20451;-85
2022/09/30 01:46:29;;;;;;;4.47;4.05;;;7.60;99.90;;;;;;6246573;22;20024;-84
2022/09/30 01:49:07;;;;;;;7.03;5.15;;;7.60;99.90;;;;;;6255691;23;20020;-85
2022/09/30 01:51:56;;;;;;;6.35;4.47;;;7.50;99.90;;;;;;6243997;23;20031;-84
2022/09/30 01:54:38;;;;;;;6.30;5.43;;;7.60;99.90;;;;;;6225987;23;20024;-85
2022/09/30 01:57:30;;;;;;;5.68;5.18;;;7.60;99.90;;;;;;6219791;23;20339;-85
2022/09/30 02:00:09;;;;;;;10.95;5.28;;;7.60;99.90;;;;;;6244371;23;20321;-85
2022/09/30 02:02:55;;;;;;;5.95;5.35;;;7.40;99.90;;;;;;6249766;23;20013;-85
2022/09/30 02:05:38;;;;;;;7.55;5.30;;;7.50;99.90;;;;;;6255404;23;20008;-85
2022/09/30 02:08:22;;;;;;;7.40;5.22;;;7.60;99.90;;;;;;6228050;23;20470;-85
2022/09/30 02:10:55;;;;;;;5.90;4.93;;;7.60;99.90;;;;;;6218639;23;20035;-85
2022/09/30 02:13:34;;;;;;;5.13;4.63;;;7.60;99.90;;;;;;6256695;23;20020;-85
2022/09/30 02:16:13;;;;;;;8.75;3.97;;;7.50;99.90;;;;;;6193494;23;20031;-85
2022/09/30 02:18:58;;;;;;;6.47;5.07;;;7.50;99.90;;;;;;6249717;23;20012;-85
2022/09/30 02:21:31;;;;;;;4.95;4.45;;;7.50;99.90;;;;;;6230273;23;20008;-85
2022/09/30 02:24:07;;;;;;;5.65;4.90;;;7.50;99.90;;;;;;6218505;23;20020;-85
2022/09/30 02:26:40;;;;;;;4.57;4.15;;;7.30;99.90;;;;;;6218023;23;20027;-85
2022/09/30 02:29:33;;;;;;;5.40;4.63;;;7.30;99.90;;;;;;6219678;23;20016;-85
2022/09/30 02:32:06;;;;;;;5.85;5.25;;;7.40;99.90;;;;;;6244969;22;20028;-85
2022/09/30 02:34:38;;;;;;;6.18;5.40;;;7.30;99.90;;;;;;6251444;22;20020;-85
2022/09/30 02:37:09;;;;;;;5.68;5.03;;;7.30;99.90;;;;;;6269798;22;20027;-85
2022/09/30 02:39:47;;;;;;;5.95;5.05;;;7.30;99.90;;;;;;6245217;22;20596;-85
2022/09/30 02:42:22;;;;;;;6.15;5.65;;;7.30;99.90;;;;;;6242814;23;20035;-85
2022/09/30 02:44:51;;;;;;;14.50;5.65;;;7.30;99.90;;;;;;6230120;23;20020;-85
2022/09/30 02:47:42;;;;;;;5.03;4.53;;;7.20;99.90;;;;;;6246710;23;20028;-85
2022/09/30 02:50:30;;;;;;;8.68;7.38;;;7.30;99.90;;;;;;6219043;23;20020;-84
2022/09/30 02:53:10;;;;;;;7.57;5.22;;;7.40;99.90;;;;;;6269924;22;20027;-85
2022/09/30 02:55:37;;;;;;;5.47;4.28;;;7.40;99.90;;;;;;6218654;23;20313;-85
2022/09/30 02:58:15;;;;;;;6.88;4.25;;;7.40;99.90;;;;;;6251171;23;20028;-85
2022/09/30 03:00:43;;;;;;;6.35;5.75;;;7.60;99.90;;;;;;6229641;23;20012;-85
2022/09/30 03:03:17;;;;;;;5.05;4.53;;;7.40;99.90;;;;;;6248662;22;20028;-85
2022/09/30 03:05:44;;;;;;;5.03;4.03;;;7.40;99.90;;;;;;6269107;22;20325;-84
2022/09/30 03:08:19;;;;;;;5.80;4.30;;;7.40;99.90;;;;;;6254459;23;20034;-85
2022/09/30 03:10:51;;;;;;;6.43;4.32;;;7.40;99.90;;;;;;6246525;22;20020;-85
2022/09/30 03:13:43;;;;;;;4.05;3.65;;;7.40;99.90;;;;;;6269106;22;20027;-85
2022/09/30 03:16:29;;;;;;;5.72;4.25;;;7.40;99.90;;;;;;6228739;23;20020;-85
2022/09/30 03:19:23;;;;;;;6.40;5.05;;;7.40;99.90;;;;;;6247893;23;20185;-84
2022/09/30 03:22:18;;;;;;;4.35;3.95;;;7.40;99.90;;;;;;6195124;22;20025;-85
2022/09/30 03:25:10;;;;;;;5.85;4.03;;;7.40;99.90;;;;;;6158089;23;20039;-85
2022/09/30 03:28:06;;;;;;;5.82;4.53;;;7.50;99.90;;;;;;6133868;23;20832;-85
2022/09/30 03:30:44;;;;;;;4.20;3.80;;;7.50;99.90;;;;;;6132109;23;20021;-85
2022/09/30 03:33:11;;;;;;;4.25;3.85;;;7.60;99.90;;;;;;6192778;23;20028;-85
2022/09/30 03:35:45;;;;;;;5.68;3.95;;;7.40;99.90;;;;;;6158542;23;20025;-85
2022/09/30 03:38:36;;;;;;;4.20;3.80;;;7.40;99.90;;;;;;6132412;23;20040;-85
2022/09/30 03:41:45;;;;;;;6.97;4.60;;;7.40;99.90;;;;;;6156299;23;20773;-85
2022/09/30 03:44:17;;;;;;;4.75;3.65;;;7.50;99.90;;;;;;6063243;23;20026;-85
2022/09/30 03:46:55;;;;;;;6.40;4.45;;;7.40;99.90;;;;;;6127343;23;20022;-85
2022/09/30 03:49:29;;;;;;;6.30;5.32;;;7.40;99.90;;;;;;6172574;23;20016;-85
2022/09/30 03:51:59;;;;;;;8.93;4.05;;;7.40;99.90;;;;;;6234486;23;20016;-85
2022/09/30 03:54:26;;;;;;;6.38;4.88;;;7.40;99.90;;;;;;6224490;23;20031;-85
2022/09/30 03:56:54;;;;;;;3.80;3.30;;;7.40;99.90;;;;;;6253624;23;20064;-85
2022/09/30 03:59:24;;;;;;;3.55;3.22;;;7.30;99.90;;;;;;6218352;23;20031;-85
2022/09/30 04:01:52;;;;;;;6.63;4.15;;;7.30;99.90;;;;;;6268879;22;20019;-85
2022/09/30 04:04:20;;;;;;;6.05;5.20;;;7.20;99.90;;;;;;6256282;23;20016;-85
2022/09/30 04:06:47;;;;;;;4.80;4.40;;;7.20;99.90;;;;;;6218168;23;20023;-85
2022/09/30 04:09:15;;;;;;;4.07;3.63;;;7.20;99.90;;;;;;6218581;23;20470;-84
2022/09/30 04:11:42;;;;;;;3.83;3.38;;;7.30;99.90;;;;;;6216855;23;20024;-85
2022/09/30 04:14:10;;;;;;;5.45;4.95;;;7.30;99.90;;;;;;6242743;23;20031;-85
2022/09/30 04:16:38;;;;;;;7.13;4.75;;;7.20;99.90;;;;;;6254543;23;20012;-85
2022/09/30 04:19:05;;;;;;;4.68;3.75;;;7.20;99.90;;;;;;6247131;23;20444;-85
2022/09/30 04:21:33;;;;;;;5.80;4.47;;;7.10;99.90;;;;;;6217418;22;20043;-85
2022/09/30 04:24:00;;;;;;;4.40;3.90;;;7.20;99.90;;;;;;6255719;23;20012;-84
2022/09/30 04:26:28;;;;;;;4.68;4.25;;;7.20;99.90;;;;;;6217216;23;20012;-85
2022/09/30 04:28:57;;;;;;;6.07;5.57;;;7.30;99.90;;;;;;6193844;23;20016;-85
2022/09/30 04:31:25;;;;;;;4.63;4.22;;;7.30;99.90;;;;;;6217922;23;20024;-85
2022/09/30 04:33:55;;;;;;;4.50;4.10;;;7.30;99.90;;;;;;6217820;22;20009;-85
2022/09/30 04:36:23;;;;;;;4.93;3.97;;;7.40;99.90;;;;;;6228769;23;20009;-85
2022/09/30 04:38:52;;;;;;;4.47;4.07;;;7.40;99.90;;;;;;6247561;23;20043;-85
2022/09/30 04:41:20;;;;;;;4.55;3.78;;;7.40;99.90;;;;;;6217969;23;20024;-85
2022/09/30 04:43:47;;;;;;;5.93;4.20;;;7.40;99.90;;;;;;6245455;22;20020;-84
2022/09/30 04:46:16;;;;;;;5.25;4.75;;;7.40;99.90;;;;;;6250124;23;20027;-85
2022/09/30 04:48:45;;;;;;;5.43;4.32;;;7.40;99.90;;;;;;6254446;23;20016;-85
2022/09/30 04:51:14;;;;;;;5.72;4.47;;;7.40;99.90;;;;;;6242481;22;20466;-85
2022/09/30 04:53:43;;;;;;;7.70;4.82;;;7.40;99.90;;;;;;6192446;22;20016;-84
2022/09/30 04:56:10;;;;;;;4.53;4.07;;;7.30;99.90;;;;;;6254957;23;20015;-86
2022/09/30 04:58:39;;;;;;;7.43;6.63;;;7.30;99.90;;;;;;6216835;23;20028;-85
2022/09/30 05:01:12;;;;;;;4.75;4.05;;;7.40;99.90;;;;;;6193008;23;20023;-84
2022/09/30 05:04:15;;;;;;;5.70;4.32;;;7.40;99.90;;;;;;6217465;23;20021;-86
2022/09/30 05:06:42;;;;;;;4.80;4.40;;;7.40;99.90;;;;;;6215765;23;20356;-86
2022/09/30 05:09:10;;;;;;;5.38;4.80;;;7.40;99.90;;;;;;6254258;23;20060;-86
2022/09/30 05:11:43;;;;;;;7.05;4.43;;;7.40;99.90;;;;;;6217433;23;20031;-87
2022/09/30 05:14:10;;;;;;;6.60;3.65;;;7.30;99.90;;;;;;6217786;23;20020;-84
2022/09/30 05:16:38;;;;;;;6.57;4.07;;;7.30;99.90;;;;;;6253699;23;20016;-85
2022/09/30 05:19:06;;;;;;;5.15;4.65;;;7.20;99.90;;;;;;6222675;23;20080;-85
2022/09/30 05:25:47;;;;;;;5.18;4.25;;;7.20;99.90;;;;;;6244151;22;20047;-83
2022/09/30 05:28:15;;;;;;;4.78;4.25;;;7.30;99.90;;;;;;6277684;22;20012;-86
2022/09/30 05:30:55;;;;;;;6.28;4.80;;;7.30;99.90;;;;;;6195008;23;20028;-85
2022/09/30 05:34:04;;;;;;;5.35;4.82;;;7.30;99.90;;;;;;6204239;23;20020;-90
2022/09/30 05:36:43;;;;;;;6.90;5.45;;;7.40;99.90;;;;;;6221604;23;20016;-91
2022/09/30 05:39:35;;;;;;;11.27;7.35;;;7.40;99.90;;;;;;6219468;23;20024;-87
2022/09/30 05:42:19;;;;;;;15.63;11.65;;;7.40;99.90;;;;;;6249212;22;20024;-84
2022/09/30 06:07:20;;;;;;;10.77;7.18;;;7.70;99.90;;;;;;6219205;23;20020;-88
2022/09/30 06:10:11;;;;;;;12.00;7.05;;;7.70;99.90;;;;;;6203274;22;20013;-87
2022/09/30 06:12:41;;;;;;;8.48;5.50;;;7.70;99.90;;;;;;6229385;23;20019;-87
2022/09/30 06:15:21;;;;;;;5.93;4.78;;;7.80;99.90;;;;;;6224255;23;20028;-87
2022/09/30 06:17:59;;;;;;;6.72;6.05;;;7.70;99.90;;;;;;6194953;23;20027;-88
2022/09/30 06:20:31;;;;;;;7.15;5.93;;;7.90;99.90;;;;;;6193439;23;20027;-88
2022/09/30 06:23:02;;;;;;;22.38;16.00;;;7.90;99.90;;;;;;6193078;23;20028;-87
2022/09/30 06:25:30;;;;;;;30.85;20.52;;;8.00;99.90;;;;;;6229653;23;20519;-87
2022/09/30 06:28:00;;;;;;;12.43;7.97;;;8.00;99.90;;;;;;6244633;23;20031;-87
2022/09/30 06:30:28;;;;;;;11.32;6.38;;;8.10;99.90;;;;;;6195832;23;20031;-87
2022/09/30 06:33:01;;;;;;;6.68;6.00;;;8.10;99.90;;;;;;6230706;23;20016;-87
2022/09/30 06:35:29;;;;;;;11.35;7.13;;;8.00;99.90;;;;;;6191221;23;20039;-87
2022/09/30 06:37:59;;;;;;;8.10;6.50;;;8.10;99.90;;;;;;6165398;23;20024;-87
2022/09/30 06:40:31;;;;;;;12.55;8.65;;;8.10;99.90;;;;;;6229425;23;20016;-87
2022/09/30 06:43:02;;;;;;;9.57;7.13;;;8.10;99.90;;;;;;6170947;23;20035;-88
2022/09/30 06:45:35;;;;;;;8.93;7.47;;;8.20;99.90;;;;;;6249842;23;20027;-87
2022/09/30 06:48:15;;;;;;;13.48;8.73;;;8.20;99.90;;;;;;6190394;23;20336;-87
2022/09/30 06:50:56;;;;;;;8.07;7.20;;;8.20;99.90;;;;;;6189042;23;20031;-88
2022/09/30 06:53:33;;;;;;;10.93;7.30;;;8.40;99.90;;;;;;6215516;23;20023;-88
2022/09/30 06:56:06;;;;;;;24.00;19.75;;;8.50;99.90;;;;;;6190264;23;20656;-87
2022/09/30 06:58:34;;;;;;;20.70;15.77;;;8.50;99.90;;;;;;6164162;23;20347;-88
2022/09/30 07:01:16;;;;;;;10.38;7.82;;;8.60;99.90;;;;;;6189725;23;20020;-88
2022/09/30 07:03:45;;;;;;;6.88;6.28;;;8.70;99.90;;;;;;6189325;23;20032;-89
2022/09/30 07:06:14;;;;;;;14.48;11.57;;;8.70;99.90;;;;;;6181756;22;20636;-88
2022/09/30 07:08:50;;;;;;;6.72;5.72;;;8.90;99.90;;;;;;6241683;23;20622;-89
2022/09/30 07:11:22;;;;;;;;;;;9.10;99.90;;;;;;6189720;23;20343;-88
2022/09/30 07:13:50;;;;;;;25.65;20.35;;;9.20;99.90;;;;;;6213528;22;19923;-89
2022/09/30 07:16:19;;;;;;;9.68;8.00;;;9.40;99.90;;;;;;6165687;23;20013;-89
2022/09/30 07:18:47;;;;;;;5.55;4.60;;;9.40;99.90;;;;;;6164816;23;20039;-89
2022/09/30 07:21:16;;;;;;;7.57;6.47;;;9.50;99.90;;;;;;6164537;23;20027;-89
2022/09/30 07:23:48;;;;;;;11.18;9.63;;;9.50;99.90;;;;;;6240026;22;20024;-89
2022/09/30 07:26:21;;;;;;;8.40;5.72;;;9.50;99.90;;;;;;6163738;23;20538;-88
2022/09/30 07:28:52;;;;;;;7.38;6.05;;;9.40;99.90;;;;;;6225644;23;20335;-89
2022/09/30 07:31:25;;;;;;;5.50;4.93;;;9.30;99.90;;;;;;6202538;22;20459;-89
2022/09/30 07:34:24;;;;;;;6.00;5.10;;;9.50;99.90;;;;;;6192243;23;20027;-90
2022/09/30 07:37:02;;;;;;;7.93;5.20;;;9.40;99.90;;;;;;6212443;23;20016;-89
2022/09/30 07:39:50;;;;;;;8.35;5.45;;;9.40;99.90;;;;;;6197887;22;20019;-89
2022/09/30 07:43:26;;;;;;;21.55;4.95;;;9.50;99.90;;;;;;6191307;23;20506;-92
2022/09/30 08:57:15;;;;;;;1.80;1.53;;;10.90;99.90;;;;;;6128568;23;1152936;-89
2022/09/30 09:11:12;;;;;;;2.65;2.45;;;11.00;99.90;;;;;;6235050;22;20028;-89
2022/09/30 09:23:57;;;;;;;3.05;2.17;;;11.10;99.90;;;;;;6172509;23;20032;-90
2022/09/30 09:30:54;;;;;;;7.45;1.77;;;11.10;99.90;;;;;;6052274;23;20028;-89
2022/09/30 09:34:21;;;;;;;;;;;;;;;;;;;;;
2022/09/30 10:29:53;;;;;;;2.85;2.58;;;11.80;99.90;;;;;;6171939;23;20020;-89
2022/09/30 10:38:45;;;;;;;2.53;1.60;;;11.70;99.90;;;;;;6161451;23;20029;-89
2022/09/30 10:46:12;;;;;;;5.85;1.83;;;11.60;99.90;;;;;;6126201;22;20033;-90
2022/09/30 10:49:39;;;;;;;2.50;2.20;;;11.80;99.90;;;;;;6131565;23;20521;-86
2022/09/30 10:52:28;;;;;;;1.88;1.73;;;11.60;99.90;;;;;;6141767;23;20033;-87
2022/09/30 10:54:58;;;;;;;1.95;1.65;;;11.70;99.90;;;;;;6187031;23;20057;-88
2022/09/30 10:57:31;;;;;;;2.78;2.10;;;11.80;99.90;;;;;;6158592;23;20021;-89
2022/09/30 11:00:20;;;;;;;2.75;2.53;;;11.90;99.90;;;;;;6135454;23;20025;-92
2022/09/30 11:08:31;;;;;;;1.83;1.70;;;11.70;99.90;;;;;;6153956;23;20017;-91
2022/09/30 11:11:40;;;;;;;4.97;1.70;;;11.70;99.90;;;;;;6144003;23;20314;-90
2022/09/30 11:14:21;;;;;;;2.03;1.83;;;11.70;99.90;;;;;;6172479;23;20017;-91
2022/09/30 11:18:09;;;;;;;1.35;1.10;;;11.70;99.90;;;;;;6041268;23;20485;-89
2022/09/30 11:26:09;;;;;;;1.17;1.10;;;11.60;99.90;;;;;;6205106;23;20036;-89
2022/09/30 11:28:56;;;;;;;1.60;1.50;;;11.70;99.90;;;;;;6099836;23;20025;-91
2022/09/30 11:32:05;;;;;;;2.50;1.65;;;11.70;99.90;;;;;;6161618;23;20337;-90
2022/09/30 11:34:42;;;;;;;10.02;1.52;;;11.90;99.90;;;;;;6183754;23;20017;-88
2022/09/30 11:37:38;;;;;;;1.92;1.83;;;11.90;99.90;;;;;;6159051;23;20017;-91
2022/09/30 11:40:37;;;;;;;2.53;2.28;;;12.00;99.90;;;;;;6135288;23;20026;-89
2022/09/30 11:44:53;;;;;;;1.88;1.77;;;12.00;99.90;;;;;;6201588;23;20035;-90
2022/09/30 11:48:31;;;;;;;6.47;1.60;;;12.10;99.90;;;;;;6183782;23;20055;-87
2022/09/30 11:52:23;;;;;;;1.85;1.75;;;12.00;99.90;;;;;;6190631;23;20423;-89
2022/09/30 11:55:56;;;;;;;1.85;1.40;;;12.00;99.90;;;;;;6169639;23;20340;-89
2022/09/30 11:58:39;;;;;;;3.25;1.10;;;11.90;99.90;;;;;;6158432;23;20017;-89
2022/09/30 12:01:29;;;;;;;0.90;0.90;;;12.10;99.90;;;;;;6189196;23;20439;-89
2022/09/30 12:04:21;;;;;;;1.40;1.30;;;12.10;99.90;;;;;;6188157;23;20475;-87
2022/09/30 12:07:13;;;;;;;1.33;1.08;;;12.10;99.90;;;;;;6187806;23;20020;-88
2022/09/30 12:09:58;;;;;;;1.55;1.45;;;12.20;99.90;;;;;;6173198;23;20436;-88
2022/09/30 12:13:09;;;;;;;2.03;1.83;;;12.30;99.90;;;;;;6198054;23;20332;-89
2022/09/30 12:16:56;;;;;;;3.45;1.92;;;12.30;99.90;;;;;;6158766;23;20036;-88
2022/09/30 12:19:30;;;;;;;1.00;1.00;;;12.20;99.90;;;;;;6215157;23;20028;-88
2022/09/30 12:22:33;;;;;;;1.00;1.00;;;12.20;99.90;;;;;;6145956;23;20080;-89
2022/09/30 12:25:24;;;;;;;2.10;1.45;;;12.20;99.90;;;;;;6097660;23;20024;-88
2022/09/30 12:32:34;;;;;;;1.15;1.05;;;12.10;99.90;;;;;;6091735;23;20179;-88
2022/09/30 12:35:26;;;;;;;1.67;1.58;;;12.20;99.90;;;;;;6048200;23;20018;-90
2022/09/30 12:38:24;;;;;;;1.60;1.50;;;12.10;99.90;;;;;;6120386;23;20467;-90
2022/09/30 12:41:44;;;;;;;1.92;1.73;;;12.10;99.90;;;;;;6156135;23;20413;-90
2022/09/30 12:46:09;;;;;;;3.45;1.83;;;12.10;99.90;;;;;;6180023;23;20156;-91
2022/09/30 12:59:57;;;;;;;2.17;1.98;;;12.00;99.90;;;;;;6079382;23;20033;-90
2022/09/30 13:04:01;;;;;;;;;;;;;;;;;;;;;
2022/09/30 14:29:43;;;;;;;2.65;2.03;;;12.20;99.90;;;;;;6178115;23;20354;-88
2022/09/30 14:32:24;;;;;;;2.42;2.20;;;12.20;99.90;;;;;;6167337;23;20347;-89
2022/09/30 14:34:52;;;;;;;;;;;12.20;99.90;;;;;;6216437;23;20034;-90
2022/09/30 14:37:29;;;;;;;2.28;2.08;;;12.20;99.90;;;;;;6193427;23;19930;-88
2022/09/30 14:39:57;;;;;;;2.47;2.28;;;12.30;99.90;;;;;;6215840;23;20335;-90
2022/09/30 14:42:30;;;;;;;2.08;1.98;;;12.30;99.90;;;;;;6191962;23;20031;-90
2022/09/30 14:45:03;;;;;;;2.58;2.38;;;12.30;99.90;;;;;;6191899;23;20017;-89
2022/09/30 14:47:40;;;;;;;3.72;2.40;;;12.30;99.90;;;;;;6217316;23;20020;-90
2022/09/30 14:50:15;;;;;;;1.85;1.75;;;12.30;99.90;;;;;;6192984;23;20028;-90
2022/09/30 14:52:55;;;;;;;2.30;2.10;;;12.30;99.90;;;;;;6170416;23;20339;-89
2022/09/30 14:55:30;;;;;;;3.55;3.25;;;12.30;99.90;;;;;;6193252;23;20025;-91
2022/09/30 14:58:17;;;;;;;3.60;3.30;;;12.20;99.90;;;;;;6184689;23;20025;-89
2022/09/30 15:00:55;;;;;;;2.42;2.17;;;12.20;99.90;;;;;;6193580;23;20320;-87
2022/09/30 15:03:23;;;;;;;3.38;3.17;;;12.20;99.90;;;;;;6216511;23;20347;-89
2022/09/30 15:05:57;;;;;;;2.78;2.58;;;12.20;99.90;;;;;;6193926;22;20041;-91
2022/09/30 15:08:37;;;;;;;2.85;2.63;;;12.20;99.90;;;;;;6197185;23;20043;-90
2022/09/30 15:11:05;;;;;;;3.00;2.72;;;12.10;99.90;;;;;;6223126;23;20020;-89
2022/09/30 15:13:34;;;;;;;2.80;2.60;;;12.10;99.90;;;;;;6194426;22;20317;-89
2022/09/30 15:16:02;;;;;;;4.07;3.53;;;12.10;99.90;;;;;;6228269;23;20023;-89
2022/09/30 15:18:45;;;;;;;3.90;3.47;;;12.20;99.90;;;;;;6189084;23;20024;-87
2022/09/30 15:22:01;;;;;;;2.90;2.63;;;12.20;99.90;;;;;;6213952;23;20323;-89
2022/09/30 15:24:37;;;;;;;3.33;3.05;;;12.20;99.90;;;;;;6193702;23;20028;-89
2022/09/30 15:27:24;;;;;;;5.55;3.45;;;12.20;99.90;;;;;;6212663;23;20020;-88
2022/09/30 15:29:57;;;;;;;2.70;2.53;;;12.20;99.90;;;;;;6188223;23;20036;-87
2022/09/30 15:32:32;;;;;;;3.45;3.15;;;12.20;99.90;;;;;;6204072;23;20029;-87
2022/09/30 15:35:14;;;;;;;3.97;3.58;;;12.20;99.90;;;;;;6178953;23;20032;-89
2022/09/30 15:37:42;;;;;;;5.80;3.50;;;12.20;99.90;;;;;;6154075;23;20025;-87
2022/09/30 15:43:05;;;;;;;3.55;3.25;;;12.20;99.90;;;;;;6177989;23;20029;-87
2022/09/30 16:28:27;;;;;;;;;;;;;;;;;;;;;
2022/09/30 16:32:29;;;;;;;1.85;1.75;;;11.50;99.90;;;;;;6038354;23;20114;-89
2022/09/30 16:35:28;;;;;;;8.88;4.65;;;11.50;99.90;;;;;;6099171;23;20056;-90
2022/09/30 16:42:37;;;;;;;2.33;2.17;;;11.40;99.90;;;;;;6151190;23;20022;-88
2022/09/30 16:45:51;;;;;;;2.00;1.90;;;11.40;99.90;;;;;;6037372;23;20492;-87
2022/09/30 17:12:51;;;;;;;2.70;2.10;;;11.10;99.90;;;;;;6163679;23;20029;31
2022/09/30 17:15:19;;;;;;;2.60;2.40;;;11.00;99.90;;;;;;6122985;23;20063;-83
2022/09/30 17:17:47;;;;;;;2.08;1.67;;;11.00;99.90;;;;;;6131378;23;20085;-88
2022/09/30 17:20:20;;;;;;;2.50;2.40;;;10.90;99.90;;;;;;6134244;23;20021;-88
2022/09/30 17:22:48;;;;;;;2.97;2.22;;;10.90;99.90;;;;;;6128356;23;20472;-87
2022/09/30 17:25:17;;;;;;;5.30;2.90;;;10.90;99.90;;;;;;6110946;23;20021;-88
2022/09/30 17:27:50;;;;;;;4.00;2.47;;;10.80;99.90;;;;;;6084930;23;20022;-91
2022/09/30 17:30:21;;;;;;;2.22;2.00;;;10.70;99.90;;;;;;6124087;23;20596;-91
2022/09/30 17:32:52;;;;;;;2.80;2.00;;;10.60;99.90;;;;;;6124659;23;20033;-87
2022/09/30 17:35:22;;;;;;;1.92;1.80;;;10.60;99.90;;;;;;6122763;23;20029;-88
2022/09/30 17:37:55;;;;;;;4.45;2.13;;;10.70;99.90;;;;;;6104880;23;20015;-89
2022/09/30 17:43:11;;;;;;;11.63;1.77;;;10.70;99.90;;;;;;6101973;23;20022;-89
2022/09/30 17:45:49;;;;;;;7.00;2.03;;;10.80;99.90;;;;;;6089254;23;20017;-91
2022/09/30 17:48:23;;;;;;;;;;;10.80;99.90;;;;;;6104738;23;20018;-88
2022/09/30 17:51:36;;;;;;;1.58;1.48;;;10.80;99.90;;;;;;6151288;23;19921;-92
2022/09/30 17:54:38;;;;;;;1.50;1.40;;;10.80;99.90;;;;;;6073562;23;20025;-89
2022/09/30 17:57:09;;;;;;;1.35;1.30;;;10.70;99.90;;;;;;6103367;23;20475;-88
2022/09/30 17:59:45;;;;;;;1.42;1.33;;;10.70;99.90;;;;;;6153239;23;20033;-89
2022/09/30 18:02:20;;;;;;;2.90;1.73;;;10.60;99.90;;;;;;6146644;23;20638;-87
2022/09/30 18:04:53;;;;;;;2.42;2.22;;;10.60;99.90;;;;;;6130230;23;20021;-87
2022/09/30 18:07:24;;;;;;;3.53;2.00;;;10.50;99.90;;;;;;6131882;23;20460;-88
2022/09/30 18:09:53;;;;;;;2.00;1.80;;;10.50;99.90;;;;;;6154094;23;20026;-87
2022/09/30 18:12:20;;;;;;;1.83;1.63;;;10.50;99.90;;;;;;6164312;23;20037;-88
2022/09/30 18:14:48;;;;;;;1.90;1.80;;;10.60;99.90;;;;;;6149785;23;20456;-88
2022/09/30 18:17:16;;;;;;;2.08;1.98;;;10.60;99.90;;;;;;6149852;23;20018;-87
2022/09/30 18:19:43;;;;;;;1.85;1.67;;;10.50;99.90;;;;;;6125863;23;20018;-87
2022/09/30 18:22:11;;;;;;;1.73;1.63;;;10.50;99.90;;;;;;6131192;23;20025;-87
2022/09/30 18:27:26;;;;;;;2.85;2.03;;;10.60;99.90;;;;;;6126591;23;20022;-87
2022/09/30 18:29:54;;;;;;;1.73;1.58;;;10.50;99.90;;;;;;6124814;23;20030;-87
2022/09/30 18:32:22;;;;;;;1.63;1.52;;;10.40;99.90;;;;;;6148262;23;20597;-87
2022/09/30 18:34:49;;;;;;;4.22;2.22;;;10.40;99.90;;;;;;6128903;23;20025;-87
2022/09/30 18:37:18;;;;;;;1.98;1.85;;;10.40;99.90;;;;;;6101272;23;20018;-86
2022/09/30 18:39:46;;;;;;;1.75;1.65;;;10.40;99.90;;;;;;6101343;23;20358;-86
2022/09/30 18:42:19;;;;;;;2.97;1.92;;;10.40;99.90;;;;;;6132596;23;20033;-86
2022/09/30 18:44:47;;;;;;;2.22;2.03;;;10.50;99.90;;;;;;6159596;23;20014;-87
2022/09/30 18:47:16;;;;;;;2.42;2.22;;;10.50;99.90;;;;;;6097481;23;20033;-86
2022/09/30 18:49:43;;;;;;;3.30;2.33;;;10.50;99.90;;;;;;6134544;23;20018;-86
2022/09/30 18:52:18;;;;;;;4.07;3.67;;;10.50;99.90;;;;;;6159063;23;20330;-87
2022/09/30 18:54:46;;;;;;;5.50;5.03;;;10.50;99.90;;;;;;6076090;23;20025;-87
2022/09/30 18:57:15;;;;;;;7.75;5.53;;;10.50;99.90;;;;;;6148816;23;20018;-87
2022/09/30 18:59:43;;;;;;;5.25;4.85;;;10.50;99.90;;;;;;6125488;23;20357;-86
2022/09/30 19:02:13;;;;;;;5.35;4.07;;;10.40;99.90;;;;;;6118410;23;20052;-87
2022/09/30 19:04:41;;;;;;;5.80;3.92;;;10.30;99.90;;;;;;6100918;23;20041;-87
2022/09/30 19:07:12;;;;;;;5.47;2.42;;;10.30;99.90;;;;;;6141658;23;20021;-82
2022/09/30 19:09:45;;;;;;;2.40;2.13;;;10.20;99.90;;;;;;6178286;23;20032;-81
2022/09/30 19:13:34;;;;;;;2.22;2.10;;;10.20;99.90;;;;;;6207597;23;20029;-83
2022/09/30 20:22:49;;;;;;;2.65;2.30;;;10.00;99.90;;;;;;6193171;23;20053;-87
